sensor_id;sensor_type;location;lat;lon;timestamp;P1;durP1;ratioP1;P2;durP2;ratioP2
36829;SDS011;22767;47.328;9.640;2022-12-18T00:01:33;41.55;;;23.58;;
36829;SDS011;22767;47.328;9.640;2022-12-18T00:04:01;44.97;;;23.65;;
36829;SDS011;22767;47.328;9.640;2022-12-18T00:06:28;42.60;;;23.25;;
36829;SDS011;22767;47.328;9.640;2022-12-18T00:08:55;41.75;;;22.92;;
36829;SDS011;22767;47.328;9.640;2022-12-18T00:11:23;43.88;;;23.15;;
36829;SDS011;22767;47.328;9.640;2022-12-18T00:13:49;42.03;;;22.70;;
36829;SDS011;22767;47.328;9.640;2022-12-18T00:16:17;41.50;;;23.23;;
36829;SDS011;22767;47.328;9.640;2022-12-18T00:18:45;43.28;;;21.33;;
36829;SDS011;22767;47.328;9.640;2022-12-18T00:21:12;40.38;;;21.13;;
36829;SDS011;22767;47.328;9.640;2022-12-18T00:23:39;41.33;;;21.67;;
36829;SDS011;22767;47.328;9.640;2022-12-18T00:26:09;42.70;;;22.90;;
36829;SDS011;22767;47.328;9.640;2022-12-18T00:28:36;39.72;;;22.20;;
36829;SDS011;22767;47.328;9.640;2022-12-18T00:31:04;40.22;;;21.77;;
36829;SDS011;22767;47.328;9.640;2022-12-18T00:33:30;42.65;;;22.52;;
36829;SDS011;22767;47.328;9.640;2022-12-18T00:36:00;38.42;;;21.50;;
36829;SDS011;22767;47.328;9.640;2022-12-18T00:38:26;40.70;;;21.20;;
36829;SDS011;22767;47.328;9.640;2022-12-18T00:40:52;39.95;;;20.80;;
36829;SDS011;22767;47.328;9.640;2022-12-18T00:43:19;41.75;;;22.45;;
36829;SDS011;22767;47.328;9.640;2022-12-18T00:45:45;40.53;;;21.08;;
36829;SDS011;22767;47.328;9.640;2022-12-18T00:48:11;39.75;;;21.90;;
36829;SDS011;22767;47.328;9.640;2022-12-18T00:50:37;36.15;;;19.45;;
36829;SDS011;22767;47.328;9.640;2022-12-18T00:53:03;38.38;;;20.63;;
36829;SDS011;22767;47.328;9.640;2022-12-18T00:55:29;39.95;;;21.35;;
36829;SDS011;22767;47.328;9.640;2022-12-18T00:57:56;41.42;;;22.45;;
36829;SDS011;22767;47.328;9.640;2022-12-18T01:00:22;43.00;;;23.10;;
36829;SDS011;22767;47.328;9.640;2022-12-18T01:02:48;41.70;;;21.17;;
36829;SDS011;22767;47.328;9.640;2022-12-18T01:05:14;46.35;;;20.27;;
36829;SDS011;22767;47.328;9.640;2022-12-18T01:07:41;38.88;;;19.88;;
36829;SDS011;22767;47.328;9.640;2022-12-18T01:10:07;39.45;;;20.50;;
36829;SDS011;22767;47.328;9.640;2022-12-18T01:12:35;37.55;;;20.27;;
36829;SDS011;22767;47.328;9.640;2022-12-18T01:15:01;37.97;;;20.88;;
36829;SDS011;22767;47.328;9.640;2022-12-18T01:17:27;39.95;;;20.38;;
36829;SDS011;22767;47.328;9.640;2022-12-18T01:19:53;35.22;;;19.17;;
36829;SDS011;22767;47.328;9.640;2022-12-18T01:22:19;41.10;;;20.90;;
36829;SDS011;22767;47.328;9.640;2022-12-18T01:24:46;40.38;;;21.02;;
36829;SDS011;22767;47.328;9.640;2022-12-18T01:27:12;40.58;;;21.45;;
36829;SDS011;22767;47.328;9.640;2022-12-18T01:29:38;40.53;;;20.05;;
36829;SDS011;22767;47.328;9.640;2022-12-18T01:32:04;37.13;;;19.58;;
36829;SDS011;22767;47.328;9.640;2022-12-18T01:34:30;41.85;;;21.77;;
36829;SDS011;22767;47.328;9.640;2022-12-18T01:36:56;40.53;;;21.75;;
36829;SDS011;22767;47.328;9.640;2022-12-18T01:39:22;39.70;;;21.48;;
36829;SDS011;22767;47.328;9.640;2022-12-18T01:41:49;40.78;;;21.52;;
36829;SDS011;22767;47.328;9.640;2022-12-18T01:47:32;38.00;;;20.08;;
36829;SDS011;22767;47.328;9.640;2022-12-18T01:50:00;40.95;;;20.35;;
36829;SDS011;22767;47.328;9.640;2022-12-18T01:52:28;36.33;;;18.75;;
36829;SDS011;22767;47.328;9.640;2022-12-18T01:54:55;41.83;;;20.25;;
36829;SDS011;22767;47.328;9.640;2022-12-18T01:57:22;37.10;;;19.30;;
36829;SDS011;22767;47.328;9.640;2022-12-18T01:59:49;39.78;;;20.55;;
36829;SDS011;22767;47.328;9.640;2022-12-18T02:02:16;39.53;;;20.80;;
36829;SDS011;22767;47.328;9.640;2022-12-18T02:04:43;35.60;;;19.77;;
36829;SDS011;22767;47.328;9.640;2022-12-18T02:09:38;39.38;;;20.63;;
36829;SDS011;22767;47.328;9.640;2022-12-18T02:14:42;36.97;;;19.30;;
36829;SDS011;22767;47.328;9.640;2022-12-18T02:17:17;36.92;;;19.00;;
36829;SDS011;22767;47.328;9.640;2022-12-18T02:22:34;37.83;;;19.83;;
36829;SDS011;22767;47.328;9.640;2022-12-18T02:25:13;40.95;;;21.00;;
36829;SDS011;22767;47.328;9.640;2022-12-18T02:27:44;38.50;;;19.83;;
36829;SDS011;22767;47.328;9.640;2022-12-18T02:30:11;39.28;;;20.25;;
36829;SDS011;22767;47.328;9.640;2022-12-18T02:32:39;41.08;;;21.00;;
36829;SDS011;22767;47.328;9.640;2022-12-18T02:35:06;43.35;;;21.50;;
36829;SDS011;22767;47.328;9.640;2022-12-18T02:37:34;43.92;;;21.63;;
36829;SDS011;22767;47.328;9.640;2022-12-18T02:40:01;41.90;;;21.15;;
36829;SDS011;22767;47.328;9.640;2022-12-18T02:42:28;46.55;;;22.17;;
36829;SDS011;22767;47.328;9.640;2022-12-18T02:44:54;43.85;;;21.80;;
36829;SDS011;22767;47.328;9.640;2022-12-18T02:47:22;45.65;;;22.85;;
36829;SDS011;22767;47.328;9.640;2022-12-18T02:57:37;47.33;;;22.58;;
36829;SDS011;22767;47.328;9.640;2022-12-18T03:00:08;47.35;;;22.25;;
36829;SDS011;22767;47.328;9.640;2022-12-18T03:02:41;48.55;;;23.23;;
36829;SDS011;22767;47.328;9.640;2022-12-18T03:05:19;44.15;;;22.45;;
36829;SDS011;22767;47.328;9.640;2022-12-18T03:10:13;49.05;;;22.35;;
36829;SDS011;22767;47.328;9.640;2022-12-18T03:12:42;43.50;;;21.70;;
36829;SDS011;22767;47.328;9.640;2022-12-18T03:15:17;50.30;;;23.25;;
36829;SDS011;22767;47.328;9.640;2022-12-18T03:17:46;49.15;;;21.80;;
36829;SDS011;22767;47.328;9.640;2022-12-18T03:20:13;39.03;;;19.58;;
36829;SDS011;22767;47.328;9.640;2022-12-18T03:22:40;47.80;;;23.35;;
36829;SDS011;22767;47.328;9.640;2022-12-18T03:25:09;50.35;;;22.75;;
36829;SDS011;22767;47.328;9.640;2022-12-18T03:27:37;49.20;;;22.85;;
36829;SDS011;22767;47.328;9.640;2022-12-18T03:30:07;42.63;;;21.75;;
36829;SDS011;22767;47.328;9.640;2022-12-18T03:35:07;39.60;;;20.60;;
36829;SDS011;22767;47.328;9.640;2022-12-18T03:37:34;45.97;;;20.92;;
36829;SDS011;22767;47.328;9.640;2022-12-18T03:40:00;45.03;;;21.67;;
36829;SDS011;22767;47.328;9.640;2022-12-18T03:42:37;45.58;;;22.15;;
36829;SDS011;22767;47.328;9.640;2022-12-18T03:45:13;42.47;;;20.50;;
36829;SDS011;22767;47.328;9.640;2022-12-18T03:47:47;43.90;;;21.10;;
36829;SDS011;22767;47.328;9.640;2022-12-18T03:50:21;44.10;;;21.50;;
36829;SDS011;22767;47.328;9.640;2022-12-18T03:52:50;43.25;;;21.00;;
36829;SDS011;22767;47.328;9.640;2022-12-18T03:55:19;42.90;;;20.30;;
36829;SDS011;22767;47.328;9.640;2022-12-18T03:57:45;39.78;;;19.55;;
36829;SDS011;22767;47.328;9.640;2022-12-18T04:00:14;41.47;;;20.08;;
36829;SDS011;22767;47.328;9.640;2022-12-18T04:02:42;42.75;;;19.58;;
36829;SDS011;22767;47.328;9.640;2022-12-18T04:05:09;45.38;;;20.95;;
36829;SDS011;22767;47.328;9.640;2022-12-18T04:07:36;41.65;;;19.90;;
36829;SDS011;22767;47.328;9.640;2022-12-18T04:10:04;50.33;;;20.42;;
36829;SDS011;22767;47.328;9.640;2022-12-18T04:12:32;41.38;;;19.70;;
36829;SDS011;22767;47.328;9.640;2022-12-18T04:14:58;45.05;;;20.45;;
36829;SDS011;22767;47.328;9.640;2022-12-18T04:17:24;40.80;;;20.35;;
36829;SDS011;22767;47.328;9.640;2022-12-18T04:19:50;43.80;;;20.80;;
36829;SDS011;22767;47.328;9.640;2022-12-18T04:22:17;44.90;;;20.80;;
36829;SDS011;22767;47.328;9.640;2022-12-18T04:24:43;41.92;;;20.60;;
36829;SDS011;22767;47.328;9.640;2022-12-18T04:27:09;41.90;;;19.58;;
36829;SDS011;22767;47.328;9.640;2022-12-18T04:29:35;48.50;;;21.52;;
36829;SDS011;22767;47.328;9.640;2022-12-18T04:32:01;43.05;;;20.42;;
36829;SDS011;22767;47.328;9.640;2022-12-18T04:34:28;44.25;;;20.90;;
36829;SDS011;22767;47.328;9.640;2022-12-18T04:36:54;43.47;;;20.63;;
36829;SDS011;22767;47.328;9.640;2022-12-18T04:39:20;40.63;;;18.88;;
36829;SDS011;22767;47.328;9.640;2022-12-18T04:41:46;42.88;;;19.90;;
36829;SDS011;22767;47.328;9.640;2022-12-18T04:44:12;43.78;;;19.95;;
36829;SDS011;22767;47.328;9.640;2022-12-18T04:46:38;35.30;;;18.23;;
36829;SDS011;22767;47.328;9.640;2022-12-18T04:49:04;44.08;;;20.20;;
36829;SDS011;22767;47.328;9.640;2022-12-18T04:51:30;43.25;;;19.80;;
36829;SDS011;22767;47.328;9.640;2022-12-18T04:53:57;45.30;;;20.13;;
36829;SDS011;22767;47.328;9.640;2022-12-18T04:56:23;39.55;;;19.60;;
36829;SDS011;22767;47.328;9.640;2022-12-18T04:58:49;44.08;;;21.77;;
36829;SDS011;22767;47.328;9.640;2022-12-18T05:01:16;44.92;;;20.67;;
36829;SDS011;22767;47.328;9.640;2022-12-18T05:03:42;41.70;;;20.15;;
36829;SDS011;22767;47.328;9.640;2022-12-18T05:06:09;45.10;;;20.48;;
36829;SDS011;22767;47.328;9.640;2022-12-18T05:08:35;42.05;;;19.30;;
36829;SDS011;22767;47.328;9.640;2022-12-18T05:11:05;43.75;;;19.35;;
36829;SDS011;22767;47.328;9.640;2022-12-18T05:13:32;44.05;;;21.90;;
36829;SDS011;22767;47.328;9.640;2022-12-18T05:15:58;42.28;;;19.90;;
36829;SDS011;22767;47.328;9.640;2022-12-18T05:18:24;45.75;;;20.63;;
36829;SDS011;22767;47.328;9.640;2022-12-18T05:20:51;40.47;;;19.95;;
36829;SDS011;22767;47.328;9.640;2022-12-18T05:23:18;39.60;;;18.38;;
36829;SDS011;22767;47.328;9.640;2022-12-18T05:25:51;39.17;;;19.27;;
36829;SDS011;22767;47.328;9.640;2022-12-18T05:28:18;40.42;;;19.00;;
36829;SDS011;22767;47.328;9.640;2022-12-18T05:30:47;41.90;;;18.33;;
36829;SDS011;22767;47.328;9.640;2022-12-18T05:33:14;41.17;;;18.38;;
36829;SDS011;22767;47.328;9.640;2022-12-18T05:35:40;46.47;;;19.33;;
36829;SDS011;22767;47.328;9.640;2022-12-18T05:38:07;41.78;;;20.83;;
36829;SDS011;22767;47.328;9.640;2022-12-18T05:40:33;41.83;;;19.30;;
36829;SDS011;22767;47.328;9.640;2022-12-18T05:42:59;42.72;;;19.08;;
36829;SDS011;22767;47.328;9.640;2022-12-18T05:45:25;43.17;;;19.77;;
36829;SDS011;22767;47.328;9.640;2022-12-18T05:47:52;45.15;;;20.52;;
36829;SDS011;22767;47.328;9.640;2022-12-18T05:50:18;40.45;;;20.00;;
36829;SDS011;22767;47.328;9.640;2022-12-18T05:52:44;43.65;;;19.80;;
36829;SDS011;22767;47.328;9.640;2022-12-18T05:55:10;39.85;;;18.90;;
36829;SDS011;22767;47.328;9.640;2022-12-18T05:57:36;41.90;;;19.48;;
36829;SDS011;22767;47.328;9.640;2022-12-18T06:00:03;41.50;;;18.80;;
36829;SDS011;22767;47.328;9.640;2022-12-18T06:02:29;41.50;;;18.70;;
36829;SDS011;22767;47.328;9.640;2022-12-18T06:04:55;46.63;;;19.85;;
36829;SDS011;22767;47.328;9.640;2022-12-18T06:07:21;42.65;;;20.05;;
36829;SDS011;22767;47.328;9.640;2022-12-18T06:09:47;44.53;;;19.60;;
36829;SDS011;22767;47.328;9.640;2022-12-18T06:12:13;41.03;;;18.80;;
36829;SDS011;22767;47.328;9.640;2022-12-18T06:14:39;41.65;;;19.13;;
36829;SDS011;22767;47.328;9.640;2022-12-18T06:17:06;40.47;;;18.25;;
36829;SDS011;22767;47.328;9.640;2022-12-18T06:19:32;42.97;;;20.52;;
36829;SDS011;22767;47.328;9.640;2022-12-18T06:21:58;42.13;;;18.85;;
36829;SDS011;22767;47.328;9.640;2022-12-18T06:24:24;39.88;;;19.35;;
36829;SDS011;22767;47.328;9.640;2022-12-18T06:26:50;40.80;;;18.77;;
36829;SDS011;22767;47.328;9.640;2022-12-18T06:29:17;41.47;;;18.50;;
36829;SDS011;22767;47.328;9.640;2022-12-18T06:31:43;40.10;;;18.27;;
36829;SDS011;22767;47.328;9.640;2022-12-18T06:34:09;37.75;;;17.10;;
36829;SDS011;22767;47.328;9.640;2022-12-18T06:36:35;35.10;;;16.80;;
36829;SDS011;22767;47.328;9.640;2022-12-18T06:39:01;37.35;;;16.98;;
36829;SDS011;22767;47.328;9.640;2022-12-18T06:41:28;36.58;;;17.13;;
36829;SDS011;22767;47.328;9.640;2022-12-18T06:43:54;37.70;;;17.95;;
36829;SDS011;22767;47.328;9.640;2022-12-18T06:46:20;34.78;;;16.25;;
36829;SDS011;22767;47.328;9.640;2022-12-18T06:48:47;34.63;;;16.27;;
36829;SDS011;22767;47.328;9.640;2022-12-18T06:51:18;36.45;;;15.68;;
36829;SDS011;22767;47.328;9.640;2022-12-18T06:53:44;37.92;;;17.45;;
36829;SDS011;22767;47.328;9.640;2022-12-18T06:56:10;34.92;;;15.82;;
36829;SDS011;22767;47.328;9.640;2022-12-18T06:58:37;34.95;;;16.73;;
36829;SDS011;22767;47.328;9.640;2022-12-18T07:01:04;39.97;;;18.02;;
36829;SDS011;22767;47.328;9.640;2022-12-18T07:03:30;37.25;;;17.63;;
36829;SDS011;22767;47.328;9.640;2022-12-18T07:05:57;33.15;;;15.90;;
36829;SDS011;22767;47.328;9.640;2022-12-18T07:08:23;35.10;;;16.75;;
36829;SDS011;22767;47.328;9.640;2022-12-18T07:10:49;34.17;;;17.02;;
36829;SDS011;22767;47.328;9.640;2022-12-18T07:13:15;36.72;;;16.50;;
36829;SDS011;22767;47.328;9.640;2022-12-18T07:15:42;38.20;;;16.30;;
36829;SDS011;22767;47.328;9.640;2022-12-18T07:18:08;37.03;;;16.92;;
36829;SDS011;22767;47.328;9.640;2022-12-18T07:20:37;41.53;;;16.42;;
36829;SDS011;22767;47.328;9.640;2022-12-18T07:23:04;36.85;;;17.13;;
36829;SDS011;22767;47.328;9.640;2022-12-18T07:25:33;35.58;;;16.45;;
36829;SDS011;22767;47.328;9.640;2022-12-18T07:27:59;32.28;;;16.15;;
36829;SDS011;22767;47.328;9.640;2022-12-18T07:30:26;33.20;;;15.55;;
36829;SDS011;22767;47.328;9.640;2022-12-18T07:32:52;35.53;;;15.88;;
36829;SDS011;22767;47.328;9.640;2022-12-18T07:35:18;34.00;;;15.70;;
36829;SDS011;22767;47.328;9.640;2022-12-18T07:37:44;31.50;;;15.60;;
36829;SDS011;22767;47.328;9.640;2022-12-18T07:40:10;30.70;;;15.23;;
36829;SDS011;22767;47.328;9.640;2022-12-18T07:42:36;34.25;;;16.58;;
36829;SDS011;22767;47.328;9.640;2022-12-18T07:45:03;34.03;;;16.63;;
36829;SDS011;22767;47.328;9.640;2022-12-18T07:47:30;30.60;;;16.05;;
36829;SDS011;22767;47.328;9.640;2022-12-18T07:49:56;37.25;;;17.67;;
36829;SDS011;22767;47.328;9.640;2022-12-18T07:52:22;38.55;;;18.17;;
36829;SDS011;22767;47.328;9.640;2022-12-18T07:54:48;37.72;;;17.50;;
36829;SDS011;22767;47.328;9.640;2022-12-18T07:57:15;38.13;;;16.88;;
36829;SDS011;22767;47.328;9.640;2022-12-18T07:59:41;34.88;;;16.35;;
36829;SDS011;22767;47.328;9.640;2022-12-18T08:02:07;34.60;;;16.00;;
36829;SDS011;22767;47.328;9.640;2022-12-18T08:04:34;36.58;;;15.88;;
36829;SDS011;22767;47.328;9.640;2022-12-18T08:07:00;36.08;;;16.45;;
36829;SDS011;22767;47.328;9.640;2022-12-18T08:09:27;35.45;;;16.25;;
36829;SDS011;22767;47.328;9.640;2022-12-18T08:11:53;33.53;;;15.10;;
36829;SDS011;22767;47.328;9.640;2022-12-18T08:14:19;35.92;;;16.65;;
36829;SDS011;22767;47.328;9.640;2022-12-18T08:16:45;34.97;;;16.05;;
36829;SDS011;22767;47.328;9.640;2022-12-18T08:19:11;36.97;;;16.83;;
36829;SDS011;22767;47.328;9.640;2022-12-18T08:21:37;37.08;;;16.98;;
36829;SDS011;22767;47.328;9.640;2022-12-18T08:24:04;32.88;;;15.73;;
36829;SDS011;22767;47.328;9.640;2022-12-18T08:26:30;35.72;;;16.70;;
36829;SDS011;22767;47.328;9.640;2022-12-18T08:28:58;31.77;;;15.63;;
36829;SDS011;22767;47.328;9.640;2022-12-18T08:31:25;35.65;;;15.85;;
36829;SDS011;22767;47.328;9.640;2022-12-18T08:33:52;36.28;;;15.57;;
36829;SDS011;22767;47.328;9.640;2022-12-18T08:36:18;36.33;;;16.67;;
36829;SDS011;22767;47.328;9.640;2022-12-18T08:38:45;36.25;;;16.42;;
36829;SDS011;22767;47.328;9.640;2022-12-18T08:41:12;38.40;;;16.95;;
36829;SDS011;22767;47.328;9.640;2022-12-18T08:43:38;35.28;;;16.33;;
36829;SDS011;22767;47.328;9.640;2022-12-18T08:46:24;37.88;;;15.88;;
36829;SDS011;22767;47.328;9.640;2022-12-18T08:48:52;35.03;;;15.93;;
36829;SDS011;22767;47.328;9.640;2022-12-18T08:51:19;36.65;;;16.80;;
36829;SDS011;22767;47.328;9.640;2022-12-18T08:53:45;36.80;;;16.50;;
36829;SDS011;22767;47.328;9.640;2022-12-18T08:56:12;41.75;;;17.77;;
36829;SDS011;22767;47.328;9.640;2022-12-18T08:58:39;38.40;;;17.63;;
36829;SDS011;22767;47.328;9.640;2022-12-18T09:01:06;40.63;;;18.15;;
36829;SDS011;22767;47.328;9.640;2022-12-18T09:03:34;39.65;;;18.65;;
36829;SDS011;22767;47.328;9.640;2022-12-18T09:06:00;40.20;;;18.80;;
36829;SDS011;22767;47.328;9.640;2022-12-18T09:08:27;38.70;;;17.90;;
36829;SDS011;22767;47.328;9.640;2022-12-18T09:10:56;34.65;;;16.88;;
36829;SDS011;22767;47.328;9.640;2022-12-18T09:13:22;36.72;;;18.17;;
36829;SDS011;22767;47.328;9.640;2022-12-18T09:15:52;36.53;;;17.17;;
36829;SDS011;22767;47.328;9.640;2022-12-18T09:18:19;39.65;;;18.50;;
36829;SDS011;22767;47.328;9.640;2022-12-18T09:20:46;38.55;;;17.83;;
36829;SDS011;22767;47.328;9.640;2022-12-18T09:23:12;39.63;;;18.50;;
36829;SDS011;22767;47.328;9.640;2022-12-18T09:25:39;42.78;;;18.85;;
36829;SDS011;22767;47.328;9.640;2022-12-18T09:28:15;42.03;;;18.40;;
36829;SDS011;22767;47.328;9.640;2022-12-18T09:30:42;38.70;;;17.55;;
36829;SDS011;22767;47.328;9.640;2022-12-18T09:33:09;39.63;;;19.45;;
36829;SDS011;22767;47.328;9.640;2022-12-18T09:35:38;39.13;;;17.50;;
36829;SDS011;22767;47.328;9.640;2022-12-18T09:38:05;40.05;;;18.48;;
36829;SDS011;22767;47.328;9.640;2022-12-18T09:40:44;43.13;;;18.88;;
36829;SDS011;22767;47.328;9.640;2022-12-18T09:43:53;35.42;;;18.08;;
36829;SDS011;22767;47.328;9.640;2022-12-18T09:46:01;40.35;;;18.95;;
36829;SDS011;22767;47.328;9.640;2022-12-18T09:48:30;41.88;;;18.65;;
36829;SDS011;22767;47.328;9.640;2022-12-18T09:51:02;38.50;;;17.75;;
36829;SDS011;22767;47.328;9.640;2022-12-18T09:53:31;35.83;;;18.27;;
36829;SDS011;22767;47.328;9.640;2022-12-18T09:55:58;38.45;;;17.40;;
36829;SDS011;22767;47.328;9.640;2022-12-18T09:58:34;38.50;;;17.15;;
36829;SDS011;22767;47.328;9.640;2022-12-18T10:01:09;41.65;;;18.77;;
36829;SDS011;22767;47.328;9.640;2022-12-18T10:03:35;40.85;;;18.17;;
36829;SDS011;22767;47.328;9.640;2022-12-18T10:06:05;38.42;;;17.67;;
36829;SDS011;22767;47.328;9.640;2022-12-18T10:11:19;39.80;;;18.25;;
36829;SDS011;22767;47.328;9.640;2022-12-18T10:13:57;37.33;;;17.98;;
36829;SDS011;22767;47.328;9.640;2022-12-18T10:16:27;37.67;;;17.77;;
36829;SDS011;22767;47.328;9.640;2022-12-18T10:21:48;39.85;;;17.77;;
36829;SDS011;22767;47.328;9.640;2022-12-18T10:24:33;35.55;;;16.83;;
36829;SDS011;22767;47.328;9.640;2022-12-18T10:29:56;35.67;;;16.70;;
36829;SDS011;22767;47.328;9.640;2022-12-18T10:32:30;37.72;;;17.05;;
36829;SDS011;22767;47.328;9.640;2022-12-18T10:34:57;36.95;;;16.40;;
36829;SDS011;22767;47.328;9.640;2022-12-18T10:37:24;36.33;;;17.33;;
36829;SDS011;22767;47.328;9.640;2022-12-18T10:42:32;37.92;;;16.40;;
36829;SDS011;22767;47.328;9.640;2022-12-18T10:45:16;34.80;;;15.30;;
36829;SDS011;22767;47.328;9.640;2022-12-18T10:47:46;35.08;;;15.50;;
36829;SDS011;22767;47.328;9.640;2022-12-18T10:50:32;34.67;;;15.80;;
36829;SDS011;22767;47.328;9.640;2022-12-18T10:52:59;32.83;;;15.30;;
36829;SDS011;22767;47.328;9.640;2022-12-18T10:55:27;36.90;;;16.88;;
36829;SDS011;22767;47.328;9.640;2022-12-18T10:57:57;32.00;;;15.52;;
36829;SDS011;22767;47.328;9.640;2022-12-18T11:00:38;36.45;;;16.83;;
36829;SDS011;22767;47.328;9.640;2022-12-18T11:03:07;31.05;;;14.98;;
36829;SDS011;22767;47.328;9.640;2022-12-18T11:05:52;29.33;;;12.85;;
36829;SDS011;22767;47.328;9.640;2022-12-18T11:08:26;33.17;;;14.68;;
36829;SDS011;22767;47.328;9.640;2022-12-18T11:10:52;30.25;;;14.02;;
36829;SDS011;22767;47.328;9.640;2022-12-18T11:13:20;34.22;;;15.10;;
36829;SDS011;22767;47.328;9.640;2022-12-18T11:15:46;28.80;;;13.02;;
36829;SDS011;22767;47.328;9.640;2022-12-18T11:18:17;27.13;;;12.77;;
36829;SDS011;22767;47.328;9.640;2022-12-18T11:20:49;27.67;;;12.63;;
36829;SDS011;22767;47.328;9.640;2022-12-18T11:23:16;25.53;;;12.63;;
36829;SDS011;22767;47.328;9.640;2022-12-18T11:25:51;27.20;;;13.65;;
36829;SDS011;22767;47.328;9.640;2022-12-18T11:28:25;25.95;;;12.93;;
36829;SDS011;22767;47.328;9.640;2022-12-18T11:31:34;25.83;;;13.05;;
36829;SDS011;22767;47.328;9.640;2022-12-18T11:33:46;28.42;;;14.60;;
36829;SDS011;22767;47.328;9.640;2022-12-18T11:36:15;27.48;;;14.32;;
36829;SDS011;22767;47.328;9.640;2022-12-18T11:38:42;32.75;;;16.10;;
36829;SDS011;22767;47.328;9.640;2022-12-18T11:41:20;31.25;;;15.38;;
36829;SDS011;22767;47.328;9.640;2022-12-18T11:43:58;26.80;;;14.07;;
36829;SDS011;22767;47.328;9.640;2022-12-18T11:46:30;27.25;;;13.68;;
36829;SDS011;22767;47.328;9.640;2022-12-18T11:48:58;28.42;;;15.02;;
36829;SDS011;22767;47.328;9.640;2022-12-18T11:54:16;34.10;;;16.27;;
36829;SDS011;22767;47.328;9.640;2022-12-18T11:56:46;32.63;;;15.45;;
36829;SDS011;22767;47.328;9.640;2022-12-18T11:59:33;36.70;;;16.77;;
36829;SDS011;22767;47.328;9.640;2022-12-18T12:07:18;37.28;;;17.67;;
36829;SDS011;22767;47.328;9.640;2022-12-18T12:18:28;34.15;;;16.98;;
36829;SDS011;22767;47.328;9.640;2022-12-18T12:20:31;33.65;;;15.82;;
36829;SDS011;22767;47.328;9.640;2022-12-18T12:25:56;38.38;;;18.30;;
36829;SDS011;22767;47.328;9.640;2022-12-18T12:34:00;39.42;;;17.85;;
36829;SDS011;22767;47.328;9.640;2022-12-18T12:39:14;37.47;;;17.63;;
36829;SDS011;22767;47.328;9.640;2022-12-18T12:41:41;39.90;;;17.85;;
36829;SDS011;22767;47.328;9.640;2022-12-18T12:44:30;36.22;;;17.65;;
36829;SDS011;22767;47.328;9.640;2022-12-18T12:46:59;35.60;;;16.97;;
36829;SDS011;22767;47.328;9.640;2022-12-18T12:49:27;40.72;;;17.95;;
36829;SDS011;22767;47.328;9.640;2022-12-18T12:52:04;38.03;;;16.98;;
36829;SDS011;22767;47.328;9.640;2022-12-18T12:54:32;40.95;;;19.02;;
36829;SDS011;22767;47.328;9.640;2022-12-18T12:59:58;37.28;;;18.00;;
36829;SDS011;22767;47.328;9.640;2022-12-18T13:02:39;37.05;;;17.10;;
36829;SDS011;22767;47.328;9.640;2022-12-18T13:08:05;39.33;;;18.20;;
36829;SDS011;22767;47.328;9.640;2022-12-18T13:20:39;40.85;;;17.95;;
36829;SDS011;22767;47.328;9.640;2022-12-18T13:25:55;38.53;;;17.38;;
36829;SDS011;22767;47.328;9.640;2022-12-18T13:31:06;40.15;;;18.23;;
36829;SDS011;22767;47.328;9.640;2022-12-18T13:33:43;36.95;;;16.65;;
36829;SDS011;22767;47.328;9.640;2022-12-18T13:38:43;37.35;;;18.58;;
36829;SDS011;22767;47.328;9.640;2022-12-18T13:43:46;36.75;;;17.55;;
36829;SDS011;22767;47.328;9.640;2022-12-18T13:49:05;40.58;;;17.70;;
36829;SDS011;22767;47.328;9.640;2022-12-18T13:51:44;41.38;;;18.95;;
36829;SDS011;22767;47.328;9.640;2022-12-18T13:56:48;41.97;;;18.10;;
36829;SDS011;22767;47.328;9.640;2022-12-18T13:59:20;36.65;;;17.70;;
36829;SDS011;22767;47.328;9.640;2022-12-18T14:01:53;37.75;;;17.20;;
36829;SDS011;22767;47.328;9.640;2022-12-18T14:04:27;38.63;;;18.13;;
36829;SDS011;22767;47.328;9.640;2022-12-18T14:07:06;30.67;;;16.42;;
36829;SDS011;22767;47.328;9.640;2022-12-18T14:12:33;39.63;;;18.17;;
36829;SDS011;22767;47.328;9.640;2022-12-18T14:17:55;39.20;;;18.08;;
36829;SDS011;22767;47.328;9.640;2022-12-18T14:20:25;40.10;;;18.95;;
36829;SDS011;22767;47.328;9.640;2022-12-18T14:22:55;34.25;;;17.27;;
36829;SDS011;22767;47.328;9.640;2022-12-18T14:25:24;34.25;;;17.40;;
36829;SDS011;22767;47.328;9.640;2022-12-18T14:28:00;40.63;;;19.10;;
36829;SDS011;22767;47.328;9.640;2022-12-18T14:30:30;38.03;;;18.02;;
36829;SDS011;22767;47.328;9.640;2022-12-18T14:33:16;37.58;;;17.95;;
36829;SDS011;22767;47.328;9.640;2022-12-18T14:35:54;37.22;;;17.60;;
36829;SDS011;22767;47.328;9.640;2022-12-18T14:38:25;36.92;;;17.58;;
36829;SDS011;22767;47.328;9.640;2022-12-18T14:40:53;32.72;;;17.35;;
36829;SDS011;22767;47.328;9.640;2022-12-18T14:43:20;36.55;;;17.40;;
36829;SDS011;22767;47.328;9.640;2022-12-18T14:45:46;36.83;;;18.80;;
36829;SDS011;22767;47.328;9.640;2022-12-18T14:51:22;35.88;;;17.13;;
36829;SDS011;22767;47.328;9.640;2022-12-18T14:53:55;34.83;;;16.60;;
36829;SDS011;22767;47.328;9.640;2022-12-18T14:56:32;39.88;;;18.38;;
36829;SDS011;22767;47.328;9.640;2022-12-18T14:59:00;37.00;;;17.65;;
36829;SDS011;22767;47.328;9.640;2022-12-18T15:01:30;38.35;;;17.92;;
36829;SDS011;22767;47.328;9.640;2022-12-18T15:03:58;37.05;;;17.30;;
36829;SDS011;22767;47.328;9.640;2022-12-18T15:06:27;33.65;;;16.20;;
36829;SDS011;22767;47.328;9.640;2022-12-18T15:08:55;36.45;;;17.92;;
36829;SDS011;22767;47.328;9.640;2022-12-18T15:11:25;34.40;;;17.58;;
36829;SDS011;22767;47.328;9.640;2022-12-18T15:13:51;39.85;;;18.92;;
36829;SDS011;22767;47.328;9.640;2022-12-18T15:16:18;35.58;;;17.95;;
36829;SDS011;22767;47.328;9.640;2022-12-18T15:18:44;39.08;;;18.38;;
36829;SDS011;22767;47.328;9.640;2022-12-18T15:21:16;38.00;;;18.05;;
36829;SDS011;22767;47.328;9.640;2022-12-18T15:26:10;38.72;;;18.95;;
36829;SDS011;22767;47.328;9.640;2022-12-18T15:28:48;40.78;;;19.15;;
36829;SDS011;22767;47.328;9.640;2022-12-18T15:33:42;41.55;;;19.80;;
36829;SDS011;22767;47.328;9.640;2022-12-18T15:36:12;41.13;;;17.95;;
36829;SDS011;22767;47.328;9.640;2022-12-18T15:38:39;41.05;;;19.60;;
36829;SDS011;22767;47.328;9.640;2022-12-18T15:41:16;42.35;;;19.90;;
36829;SDS011;22767;47.328;9.640;2022-12-18T15:43:43;46.53;;;21.23;;
36829;SDS011;22767;47.328;9.640;2022-12-18T15:46:14;45.17;;;21.52;;
36829;SDS011;22767;47.328;9.640;2022-12-18T15:48:43;48.53;;;21.92;;
36829;SDS011;22767;47.328;9.640;2022-12-18T15:51:17;45.42;;;20.02;;
36829;SDS011;22767;47.328;9.640;2022-12-18T15:53:47;41.28;;;20.58;;
36829;SDS011;22767;47.328;9.640;2022-12-18T15:56:15;41.60;;;20.67;;
36829;SDS011;22767;47.328;9.640;2022-12-18T15:59:00;40.88;;;19.48;;
36829;SDS011;22767;47.328;9.640;2022-12-18T16:01:27;43.78;;;19.88;;
36829;SDS011;22767;47.328;9.640;2022-12-18T16:03:54;46.60;;;23.13;;
36829;SDS011;22767;47.328;9.640;2022-12-18T16:06:21;45.25;;;21.65;;
36829;SDS011;22767;47.328;9.640;2022-12-18T16:08:48;49.25;;;22.00;;
36829;SDS011;22767;47.328;9.640;2022-12-18T16:11:20;41.60;;;20.98;;
36829;SDS011;22767;47.328;9.640;2022-12-18T16:14:24;43.08;;;20.45;;
36829;SDS011;22767;47.328;9.640;2022-12-18T16:16:52;42.13;;;21.08;;
36829;SDS011;22767;47.328;9.640;2022-12-18T16:19:20;48.97;;;23.50;;